Time;durP1;ratioP1;P1;durP2;ratioP2;P2;SDS_P1;SDS_P2;PMS_P1;PMS_P2;Temp;Humidity;BMP_temperature;BMP_pressure;BME280_temperature;BME280_humidity;BME280_pressure;Samples;Min_cycle;Max_cycle;Signal;HPM_P1;HPM_P2
2021/04/15 00:03:26;;;;;;;7.60;4.00;;;1.50;99.90;;;;;;12363524;28;20095;-42
2021/04/15 00:09:28;;;;;;;11.15;4.47;;;1.30;99.90;;;;;;12359425;28;20055;-42
2021/04/15 00:15:30;;;;;;;12.82;4.43;;;1.40;99.90;;;;;;12362534;28;20053;-42
2021/04/15 00:21:31;;;;;;;7.85;4.40;;;1.20;99.90;;;;;;12357804;28;20042;-42
2021/04/15 00:27:32;;;;;;;7.38;4.93;;;1.00;99.90;;;;;;12349110;28;20061;-42
2021/04/15 00:33:34;;;;;;;11.43;5.03;;;0.90;99.90;;;;;;12364243;28;20113;-42
2021/04/15 00:39:36;;;;;;;11.55;5.85;;;0.90;99.90;;;;;;12354977;28;20495;-45
2021/04/15 00:45:43;;;;;;;10.82;5.65;;;1.00;99.90;;;;;;12337641;28;20136;-42
2021/04/15 00:51:51;;;;;;;8.30;5.03;;;0.90;99.90;;;;;;12358035;28;20266;-42
2021/04/15 00:57:54;;;;;;;12.10;5.55;;;0.90;99.90;;;;;;12359130;28;20104;-43
2021/04/15 01:03:56;;;;;;;8.32;5.03;;;0.80;99.90;;;;;;12350745;28;20502;-44
2021/04/15 01:09:58;;;;;;;9.00;4.70;;;0.70;99.90;;;;;;12362877;28;20088;-43
2021/04/15 01:16:19;;;;;;;12.38;6.03;;;0.60;99.90;;;;;;12364369;28;20430;-44
2021/04/15 01:22:36;;;;;;;11.85;5.53;;;0.60;99.90;;;;;;12371934;28;20043;-42
2021/04/15 01:29:02;;;;;;;10.90;4.93;;;0.60;99.90;;;;;;12367668;28;20042;-43
2021/04/15 01:35:26;;;;;;;9.48;5.18;;;0.60;99.90;;;;;;12369918;28;20436;-42
2021/04/15 01:41:31;;;;;;;9.47;5.30;;;0.50;99.90;;;;;;12364150;28;20438;-43
2021/04/15 01:47:36;;;;;;;;;;;0.50;99.90;;;;;;12358608;28;20070;-42
2021/04/15 01:53:46;;;;;;;13.38;5.50;;;0.60;99.90;;;;;;12362132;28;19925;-44
2021/04/15 02:00:21;;;;;;;11.02;5.40;;;0.50;99.90;;;;;;12365653;28;20454;-44
2021/04/15 02:06:27;;;;;;;11.63;4.97;;;0.40;99.90;;;;;;12367965;28;20612;-42
2021/04/15 02:12:30;;;;;;;9.90;5.82;;;0.30;99.90;;;;;;12366515;28;20497;-42
2021/04/15 02:18:56;;;;;;;10.30;5.70;;;0.30;99.90;;;;;;12376328;28;20062;-42
2021/04/15 02:25:28;;;;;;;11.98;5.93;;;0.30;99.90;;;;;;12371982;28;20077;-42
2021/04/15 02:31:56;;;;;;;11.10;5.80;;;0.20;99.90;;;;;;12361009;28;20042;-42
2021/04/15 02:38:01;;;;;;;13.82;5.82;;;0.20;99.90;;;;;;12351376;28;20046;-42
2021/04/15 02:44:07;;;;;;;11.23;5.90;;;0.10;99.90;;;;;;12359001;28;20054;-42
2021/04/15 02:50:12;;;;;;;12.50;6.05;;;0.10;99.90;;;;;;12371479;28;20149;-43
2021/04/15 02:56:23;;;;;;;10.07;6.32;;;0.00;99.90;;;;;;12370241;28;20046;-42
2021/04/15 03:02:34;;;;;;;14.40;6.50;;;0.10;99.90;;;;;;12364636;28;20149;-41
2021/04/15 03:08:38;;;;;;;13.40;7.80;;;0.10;99.90;;;;;;12365342;28;20399;-42
2021/04/15 03:14:51;;;;;;;15.23;7.35;;;0.00;99.90;;;;;;12370338;28;20046;-42
2021/04/15 03:21:00;;;;;;;15.50;6.90;;;-0.10;99.90;;;;;;12361885;28;20616;-42
2021/04/15 03:27:15;;;;;;;15.73;7.18;;;-0.10;99.90;;;;;;12365970;28;20519;-42
2021/04/15 03:33:43;;;;;;;13.40;6.35;;;-0.10;99.90;;;;;;12361221;28;20546;-43
2021/04/15 03:39:46;;;;;;;14.13;7.35;;;-0.10;99.90;;;;;;12359919;28;20050;-42
2021/04/15 03:46:03;;;;;;;15.50;8.10;;;-0.10;99.90;;;;;;12364230;28;20124;-41
2021/04/15 03:52:22;;;;;;;14.27;7.15;;;-0.10;99.90;;;;;;12363110;28;20141;-42
2021/04/15 03:58:30;;;;;;;15.20;6.80;;;-0.10;99.90;;;;;;12363992;28;20045;-43
2021/04/15 04:04:42;;;;;;;15.77;7.22;;;-0.10;99.90;;;;;;12361152;28;20050;-41
2021/04/15 04:10:46;;;;;;;15.75;6.13;;;0.00;99.90;;;;;;12361548;28;20061;-42
2021/04/15 04:17:02;;;;;;;16.67;7.50;;;-0.20;99.90;;;;;;12367764;28;20726;-41
2021/04/15 04:23:25;;;;;;;14.07;7.15;;;-0.20;99.90;;;;;;12365978;28;20050;-43
2021/04/15 04:29:40;;;;;;;16.63;6.88;;;-0.20;99.90;;;;;;12355479;28;20593;-42
2021/04/15 04:35:45;;;;;;;13.68;7.18;;;-0.20;99.90;;;;;;12361864;28;20073;-42
2021/04/15 04:42:08;;;;;;;16.42;6.80;;;-0.10;99.90;;;;;;12360144;28;20042;-42
2021/04/15 04:48:21;;;;;;;16.25;7.35;;;-0.10;99.90;;;;;;12363742;28;20050;-42
2021/04/15 04:54:24;;;;;;;12.70;7.07;;;-0.20;99.90;;;;;;12363648;28;20045;-42
2021/04/15 05:00:26;;;;;;;12.13;6.38;;;0.00;99.90;;;;;;12370141;28;20066;-42
2021/04/15 05:06:33;;;;;;;13.30;7.05;;;0.00;99.90;;;;;;12371280;28;20061;-42
2021/04/15 05:12:35;;;;;;;17.23;7.75;;;0.10;99.90;;;;;;12364629;28;21120;-42
2021/04/15 05:18:38;;;;;;;11.63;6.53;;;0.50;99.90;;;;;;12367332;28;20140;-42
2021/04/15 05:24:48;;;;;;;14.90;6.25;;;1.70;99.90;;;;;;12367482;28;20058;-42
2021/04/15 05:30:52;;;;;;;15.15;6.07;;;3.00;99.90;;;;;;12367111;28;20443;-42
2021/04/15 05:36:58;;;;;;;10.20;5.25;;;3.90;99.90;;;;;;12369699;28;20376;-42
2021/04/15 05:43:26;;;;;;;12.85;5.97;;;4.20;99.90;;;;;;12371994;28;20061;-43
2021/04/15 05:49:40;;;;;;;11.85;5.20;;;3.80;99.90;;;;;;12369795;28;20057;-42
2021/04/15 05:56:06;;;;;;;8.88;5.13;;;3.70;99.90;;;;;;12368265;28;22692;-42
2021/04/15 06:02:52;;;;;;;9.23;5.25;;;3.50;99.90;;;;;;12371294;28;20054;-42
2021/04/15 06:08:55;;;;;;;14.13;5.63;;;3.40;99.90;;;;;;12368985;28;20038;-42
2021/04/15 06:15:15;;;;;;;14.38;5.80;;;3.60;99.90;;;;;;12368727;28;20096;-42
2021/04/15 06:21:42;;;;;;;18.00;6.85;;;3.80;99.90;;;;;;12365628;28;20396;-42
2021/04/15 06:27:45;;;;;;;10.98;5.90;;;3.90;99.90;;;;;;12375480;28;21131;-42
2021/04/15 06:33:46;;;;;;;10.95;6.00;;;4.00;99.90;;;;;;12371776;28;20197;-42
2021/04/15 06:40:29;;;;;;;12.55;6.63;;;3.90;99.90;;;;;;12367696;28;20130;-42
2021/04/15 06:46:41;;;;;;;14.27;6.28;;;3.90;99.90;;;;;;12367728;28;20058;-42
2021/04/15 06:52:54;;;;;;;13.40;7.28;;;3.80;99.90;;;;;;12366723;28;20043;-42
2021/04/15 06:59:35;;;;;;;16.42;7.47;;;3.80;99.90;;;;;;12372900;28;20042;-43
2021/04/15 07:05:45;;;;;;;13.63;8.10;;;3.90;99.90;;;;;;12358989;28;20054;-43
2021/04/15 07:12:20;;;;;;;18.70;9.00;;;4.10;99.90;;;;;;12359081;28;20054;-43
2021/04/15 07:18:40;;;;;;;;;;;4.20;99.90;;;;;;12370770;28;20046;-42
2021/04/15 07:25:00;;;;;;;15.88;8.45;;;4.40;99.90;;;;;;12363977;28;19926;-42
2021/04/15 07:31:47;;;;;;;16.33;9.80;;;4.50;99.90;;;;;;12363086;28;20050;-43
2021/04/15 07:38:21;;;;;;;16.38;8.68;;;4.60;99.90;;;;;;12359944;28;20057;-42
2021/04/15 07:44:28;;;;;;;17.50;9.50;;;4.70;99.90;;;;;;12363296;28;20140;-42
2021/04/15 07:51:00;;;;;;;15.48;9.50;;;5.00;99.90;;;;;;12366826;28;20056;-43
2021/04/15 07:57:30;;;;;;;17.27;8.95;;;5.00;99.90;;;;;;12358477;28;20406;-43
2021/04/15 08:03:59;;;;;;;17.40;8.77;;;5.20;99.90;;;;;;12361559;28;20050;-44
2021/04/15 08:10:30;;;;;;;19.25;9.77;;;5.40;99.90;;;;;;12367068;28;20145;-42
2021/04/15 08:16:59;;;;;;;15.60;9.73;;;5.60;99.90;;;;;;12358968;28;20045;-42
2021/04/15 08:23:47;;;;;;;14.52;9.00;;;5.80;99.90;;;;;;12355190;28;20092;-42
2021/04/15 08:30:22;;;;;;;21.00;9.15;;;6.10;99.90;;;;;;12353171;28;20054;-42
2021/04/15 08:36:59;;;;;;;;;;;6.20;99.90;;;;;;12358200;28;20047;-42
2021/04/15 08:43:25;;;;;;;18.00;9.90;;;6.50;99.90;;;;;;12342162;28;19922;-43
2021/04/15 08:49:34;;;;;;;20.10;9.38;;;6.70;99.90;;;;;;12364903;28;20096;-44
2021/04/15 08:55:43;;;;;;;14.10;6.45;;;7.10;99.90;;;;;;12362289;28;20164;-43
2021/04/15 09:02:22;;;;;;;15.10;7.00;;;7.00;99.90;;;;;;12358408;28;20051;-43
2021/04/15 09:08:40;;;;;;;9.15;5.40;;;7.20;99.90;;;;;;12365438;28;20061;-43
2021/04/15 09:15:02;;;;;;;12.25;5.72;;;7.50;99.90;;;;;;12359945;28;20054;-42
2021/04/15 09:21:42;;;;;;;10.80;5.82;;;7.80;99.90;;;;;;12355774;28;20048;-44
2021/04/15 09:27:57;;;;;;;9.05;5.05;;;7.90;99.90;;;;;;12359238;28;20042;-43
2021/04/15 09:33:58;;;;;;;12.57;4.72;;;8.10;99.90;;;;;;12354826;28;20096;-43
2021/04/15 09:40:09;;;;;;;11.52;6.00;;;8.60;99.90;;;;;;12364100;28;20170;-45
2021/04/15 09:46:20;;;;;;;10.55;5.90;;;8.90;99.90;;;;;;12367177;28;20169;-43
2021/04/15 09:52:48;;;;;;;8.77;3.70;;;9.20;99.90;;;;;;12362988;28;20050;-43
2021/04/15 09:59:33;;;;;;;9.02;4.03;;;9.20;99.90;;;;;;12362880;28;20091;-42
2021/04/15 10:05:40;;;;;;;8.57;3.60;;;9.30;99.90;;;;;;12368824;28;20050;-43
2021/04/15 10:12:01;;;;;;;7.20;3.35;;;9.70;99.90;;;;;;12370549;28;20046;-43
2021/04/15 10:18:08;;;;;;;8.20;2.22;;;10.00;99.90;;;;;;12367907;28;20408;-44
2021/04/15 10:24:43;;;;;;;6.97;3.28;;;9.90;99.90;;;;;;12366518;28;20049;-46
2021/04/15 10:31:06;;;;;;;7.05;3.83;;;9.90;99.90;;;;;;12371756;28;20049;-43
2021/04/15 10:37:32;;;;;;;5.90;3.00;;;10.10;99.90;;;;;;12359859;28;20471;-45
2021/04/15 10:43:53;;;;;;;4.38;1.90;;;10.30;99.90;;;;;;12367571;28;20046;-43
2021/04/15 10:50:06;;;;;;;9.40;3.88;;;10.30;99.90;;;;;;12361402;28;20050;-43
2021/04/15 10:56:11;;;;;;;6.30;3.30;;;11.00;99.90;;;;;;12367980;28;20137;-43
2021/04/15 11:02:29;;;;;;;7.47;3.22;;;10.40;99.90;;;;;;12364719;28;20149;-43
2021/04/15 11:08:31;;;;;;;8.02;3.55;;;11.00;99.90;;;;;;12367942;28;20050;-43
2021/04/15 11:14:38;;;;;;;7.30;3.25;;;11.70;99.90;;;;;;12364670;28;20096;-43
2021/04/15 11:20:42;;;;;;;7.35;3.67;;;11.00;99.90;;;;;;12366887;28;20085;-43
2021/04/15 11:26:52;;;;;;;5.15;2.90;;;10.50;99.90;;;;;;12369643;28;20050;-43
2021/04/15 11:32:53;;;;;;;3.40;1.45;;;10.90;99.90;;;;;;12361482;28;20073;-43
2021/04/15 11:39:04;;;;;;;6.38;2.30;;;10.80;99.90;;;;;;12367468;28;20046;-44
2021/04/15 11:45:06;;;;;;;3.35;1.20;;;10.50;99.90;;;;;;12365099;28;20703;-43
2021/04/15 11:51:21;;;;;;;2.97;1.30;;;10.00;99.90;;;;;;12364508;28;20693;-43
2021/04/15 11:57:38;;;;;;;3.80;1.40;;;9.90;99.90;;;;;;12367083;28;20145;-42
2021/04/15 12:04:00;;;;;;;3.88;2.13;;;10.80;99.90;;;;;;12361365;28;20108;-43
2021/04/15 12:10:02;;;;;;;4.30;1.70;;;10.70;99.90;;;;;;12361654;28;20071;-43
2021/04/15 12:16:26;;;;;;;3.08;1.00;;;11.40;99.90;;;;;;12365792;28;20540;-43
2021/04/15 12:22:55;;;;;;;3.92;1.10;;;11.90;99.90;;;;;;12351648;28;20087;-43
2021/04/15 12:29:07;;;;;;;2.33;1.00;;;12.10;99.90;;;;;;12358443;28;20114;-44
2021/04/15 12:35:20;;;;;;;2.15;1.00;;;13.00;99.90;;;;;;12356188;28;20438;-43
2021/04/15 12:41:23;;;;;;;3.03;0.82;;;13.50;99.90;;;;;;12357649;28;20049;-44
2021/04/15 12:47:28;;;;;;;3.53;1.20;;;12.50;93.10;;;;;;12358305;28;20053;-43
2021/04/15 12:53:34;;;;;;;2.13;0.80;;;11.80;99.90;;;;;;12366252;28;20038;-42
2021/04/15 12:59:48;;;;;;;2.55;1.10;;;11.10;99.90;;;;;;12364718;28;20069;-43
2021/04/15 13:05:51;;;;;;;2.75;1.13;;;11.10;99.90;;;;;;12353955;28;20049;-44
2021/04/15 13:11:52;;;;;;;5.05;1.60;;;10.80;99.90;;;;;;12363649;28;20046;-43
2021/04/15 13:18:09;;;;;;;1.75;0.80;;;11.50;99.90;;;;;;12368941;28;20046;-43
2021/04/15 13:24:41;;;;;;;1.60;0.90;;;11.20;99.90;;;;;;12370691;28;20136;-43
2021/04/15 13:30:42;;;;;;;2.25;0.90;;;10.80;99.90;;;;;;12364099;28;20050;-43
2021/04/15 13:36:44;;;;;;;2.25;0.90;;;10.90;99.90;;;;;;12371091;28;20430;-44
2021/04/15 13:42:46;;;;;;;1.75;0.85;;;10.50;99.90;;;;;;12365844;28;20404;-43
2021/04/15 13:49:08;;;;;;;2.58;1.00;;;10.70;99.90;;;;;;12372535;28;20058;-45
2021/04/15 13:55:46;;;;;;;2.17;0.80;;;11.30;99.90;;;;;;12371838;28;20052;-44
2021/04/15 14:01:48;;;;;;;2.08;1.00;;;11.90;99.90;;;;;;12362477;28;20165;-44
2021/04/15 14:07:51;;;;;;;2.35;0.88;;;11.60;99.90;;;;;;12362631;28;20085;-44
2021/04/15 14:13:55;;;;;;;2.00;0.95;;;10.80;99.90;;;;;;12365384;28;20168;-43
2021/04/15 14:20:09;;;;;;;;;;;10.40;99.90;;;;;;12366957;28;20046;-44
2021/04/15 14:26:13;;;;;;;2.30;1.10;;;10.10;99.90;;;;;;12358630;28;20376;-44
2021/04/15 14:32:22;;;;;;;2.97;1.23;;;9.60;99.90;;;;;;12366346;28;20081;-43
2021/04/15 14:38:33;;;;;;;3.08;1.30;;;9.00;99.90;;;;;;12363210;28;20139;-43
2021/04/15 14:44:36;;;;;;;2.30;1.20;;;9.40;99.90;;;;;;12367874;28;20053;-44
2021/04/15 14:50:39;;;;;;;4.50;1.45;;;10.10;99.90;;;;;;12368768;28;20145;-42
2021/04/15 14:56:41;;;;;;;2.60;1.45;;;10.30;99.90;;;;;;12365003;28;20797;-43
2021/04/15 15:02:43;;;;;;;4.60;1.45;;;10.50;99.90;;;;;;12369656;28;20042;-43
2021/04/15 15:08:45;;;;;;;3.35;1.25;;;11.30;99.90;;;;;;12368772;28;20053;-43
2021/04/15 15:14:48;;;;;;;3.08;1.40;;;11.10;99.90;;;;;;12361026;28;20120;-43
2021/04/15 15:20:55;;;;;;;3.42;1.50;;;10.70;99.90;;;;;;12362367;28;20729;-43
2021/04/15 15:26:59;;;;;;;4.88;1.70;;;9.90;99.90;;;;;;12360076;28;20057;-43
2021/04/15 15:33:20;;;;;;;2.50;1.50;;;9.50;99.90;;;;;;12361085;28;20431;-43
2021/04/15 15:39:35;;;;;;;3.40;1.48;;;9.90;99.90;;;;;;12348666;28;20050;-42
2021/04/15 15:45:46;;;;;;;2.75;1.30;;;10.30;99.90;;;;;;12363851;28;20096;-44
2021/04/15 15:52:12;;;;;;;3.33;1.60;;;10.20;99.90;;;;;;12358953;28;20168;-42
2021/04/15 15:58:22;;;;;;;3.65;1.30;;;10.10;99.90;;;;;;12368078;28;20154;-42
2021/04/15 16:04:25;;;;;;;2.38;1.20;;;9.90;99.90;;;;;;12356333;28;20103;-42
2021/04/15 16:10:43;;;;;;;3.65;1.50;;;10.30;99.90;;;;;;12357290;28;20505;-42
2021/04/15 16:16:50;;;;;;;2.50;1.40;;;10.60;99.90;;;;;;12363154;28;20046;-43
2021/04/15 16:22:51;;;;;;;2.80;1.40;;;10.20;99.90;;;;;;12360968;28;20046;-42
2021/04/15 16:28:53;;;;;;;2.92;1.58;;;10.00;99.90;;;;;;12351291;28;20054;-43
2021/04/15 16:34:54;;;;;;;3.72;1.75;;;10.30;99.90;;;;;;12359559;28;20170;-44
2021/04/15 16:40:56;;;;;;;3.67;1.42;;;10.70;99.90;;;;;;12347270;28;20050;-44
2021/04/15 16:46:57;;;;;;;2.53;1.35;;;10.40;99.90;;;;;;12360718;28;20045;-43
2021/04/15 16:52:59;;;;;;;4.13;1.60;;;10.50;99.90;;;;;;12361290;28;20053;-43
2021/04/15 16:59:01;;;;;;;3.40;1.45;;;10.30;99.90;;;;;;12359808;28;20050;-42
2021/04/15 17:05:07;;;;;;;3.00;1.70;;;10.00;99.90;;;;;;12360339;28;20132;-43
2021/04/15 17:11:08;;;;;;;4.22;2.20;;;9.80;99.90;;;;;;12349942;28;20129;-43
2021/04/15 17:17:10;;;;;;;2.92;1.52;;;9.60;99.90;;;;;;12359102;28;20073;-44
2021/04/15 17:23:12;;;;;;;4.15;1.70;;;9.40;99.90;;;;;;12359118;28;20043;-44
2021/04/15 17:29:14;;;;;;;4.63;1.60;;;9.30;99.90;;;;;;12363900;28;20126;-43
2021/04/15 17:35:19;;;;;;;4.43;1.65;;;9.20;99.90;;;;;;12353720;28;20133;-44
2021/04/15 17:41:20;;;;;;;3.60;1.52;;;9.00;99.90;;;;;;12354048;28;20124;-42
2021/04/15 17:47:22;;;;;;;2.80;1.20;;;8.80;99.90;;;;;;12360817;28;20767;-43
2021/04/15 17:53:24;;;;;;;3.83;1.90;;;8.70;99.90;;;;;;12354527;28;20126;-43
2021/04/15 17:59:25;;;;;;;3.10;1.50;;;8.40;99.90;;;;;;12362021;28;20077;-45
2021/04/15 18:05:29;;;;;;;2.00;1.30;;;7.90;99.90;;;;;;12363730;28;20104;-43
2021/04/15 18:11:34;;;;;;;2.35;1.45;;;7.60;99.90;;;;;;12365952;28;20120;-42
2021/04/15 18:17:35;;;;;;;2.75;1.30;;;7.40;99.90;;;;;;12361530;28;20046;-43
2021/04/15 18:23:38;;;;;;;2.88;1.30;;;7.30;99.90;;;;;;12356205;28;20046;-44
2021/04/15 18:29:39;;;;;;;3.53;1.40;;;7.10;99.90;;;;;;12374437;28;20112;-42
2021/04/15 18:35:41;;;;;;;3.25;1.50;;;7.00;99.90;;;;;;12359715;28;20372;-44
2021/04/15 18:41:44;;;;;;;2.75;1.30;;;6.90;99.90;;;;;;12361859;28;20427;-45
2021/04/15 18:47:45;;;;;;;2.72;1.60;;;6.90;99.90;;;;;;12366973;28;20149;-43
2021/04/15 18:53:47;;;;;;;3.63;1.90;;;6.90;99.90;;;;;;12358754;28;20055;-44
2021/04/15 18:59:48;;;;;;;4.85;1.83;;;6.70;99.90;;;;;;12363541;28;20123;-43
2021/04/15 19:05:50;;;;;;;3.83;1.83;;;6.60;99.90;;;;;;12358971;28;20057;-43
2021/04/15 19:11:51;;;;;;;3.33;1.30;;;6.60;99.90;;;;;;12365933;28;20487;-43
2021/04/15 19:17:55;;;;;;;3.88;1.83;;;6.70;99.90;;;;;;12363215;28;20092;-43
2021/04/15 19:23:57;;;;;;;3.13;1.70;;;6.90;99.90;;;;;;12358086;28;20147;-43
2021/04/15 19:29:58;;;;;;;5.07;1.30;;;6.80;99.90;;;;;;12363469;28;20062;-45
2021/04/15 19:36:00;;;;;;;2.85;1.50;;;6.80;99.90;;;;;;12356523;28;20054;-45
2021/04/15 19:42:01;;;;;;;4.72;1.50;;;6.60;99.90;;;;;;12358987;28;20474;-43
2021/04/15 19:48:03;;;;;;;3.28;1.40;;;6.50;99.90;;;;;;12360215;28;20100;-43
2021/04/15 19:54:04;;;;;;;3.70;1.50;;;6.50;99.90;;;;;;12367644;28;20050;-43
2021/04/15 20:00:12;;;;;;;3.75;1.55;;;6.80;99.90;;;;;;12357501;28;20089;-43
2021/04/15 20:06:16;;;;;;;6.65;2.08;;;6.70;99.90;;;;;;12362717;28;20058;-44
2021/04/15 20:12:17;;;;;;;3.53;1.60;;;6.80;99.90;;;;;;12362100;28;20219;-43
2021/04/15 20:18:19;;;;;;;2.20;1.35;;;6.80;99.90;;;;;;12363979;28;20144;-43
2021/04/15 20:24:20;;;;;;;3.92;1.60;;;6.70;99.90;;;;;;12360666;28;20054;-44
2021/04/15 20:30:28;;;;;;;3.63;1.55;;;6.60;99.90;;;;;;12356302;28;20095;-43
2021/04/15 20:36:30;;;;;;;2.45;1.60;;;6.60;99.90;;;;;;12363404;28;20038;-42
2021/04/15 20:42:32;;;;;;;3.20;1.50;;;6.50;99.90;;;;;;12354763;28;20456;-44
2021/04/15 20:48:33;;;;;;;3.63;1.70;;;6.40;99.90;;;;;;12355142;28;20058;-43
2021/04/15 20:54:34;;;;;;;3.72;2.10;;;6.30;99.90;;;;;;12363175;28;20279;-44
2021/04/15 21:00:39;;;;;;;3.72;1.80;;;6.00;99.90;;;;;;12366776;28;20115;-44
2021/04/15 21:06:41;;;;;;;;;;;5.90;99.90;;;;;;12355251;28;20064;-42
2021/04/15 21:12:44;;;;;;;4.10;1.58;;;5.50;99.90;;;;;;12362299;28;20400;-44
2021/04/15 21:18:46;;;;;;;2.50;1.58;;;5.20;99.90;;;;;;12354441;28;20492;-43
2021/04/15 21:24:47;;;;;;;4.82;1.67;;;5.00;99.90;;;;;;12354839;28;20058;-44
2021/04/15 21:30:50;;;;;;;3.70;1.90;;;4.80;99.90;;;;;;12356865;28;20053;-45
2021/04/15 21:36:51;;;;;;;3.85;2.00;;;4.70;99.90;;;;;;12367008;28;20437;-42
2021/04/15 21:42:53;;;;;;;6.88;1.80;;;4.70;99.90;;;;;;12370249;28;20045;-42
2021/04/15 21:48:54;;;;;;;3.63;1.70;;;4.70;99.90;;;;;;12370727;28;20046;-43
2021/04/15 21:54:56;;;;;;;3.67;1.83;;;4.80;99.90;;;;;;12365550;28;20100;-43
2021/04/15 22:00:59;;;;;;;2.55;1.63;;;4.80;99.90;;;;;;12374900;28;20100;-42
2021/04/15 22:07:01;;;;;;;2.80;1.67;;;5.00;99.90;;;;;;12360265;28;20085;-43
2021/04/15 22:13:03;;;;;;;3.17;1.67;;;5.00;99.90;;;;;;12364113;28;20050;-45
2021/04/15 22:19:07;;;;;;;3.28;1.77;;;5.00;99.90;;;;;;12364271;28;20462;-43
2021/04/15 22:25:09;;;;;;;3.80;1.73;;;5.00;99.90;;;;;;12359034;28;20051;-43
2021/04/15 22:31:14;;;;;;;3.55;1.55;;;5.00;99.90;;;;;;12365966;28;20062;-43
2021/04/15 22:37:16;;;;;;;;;;;5.10;99.90;;;;;;12358200;28;20088;-43
2021/04/15 22:43:18;;;;;;;3.92;1.90;;;5.10;99.90;;;;;;12359475;28;20016;-42
2021/04/15 22:49:20;;;;;;;4.43;1.70;;;5.10;99.90;;;;;;12362194;28;20052;-47
2021/04/15 22:55:26;;;;;;;4.07;1.77;;;5.10;99.90;;;;;;12358819;28;20100;-44
2021/04/15 23:01:29;;;;;;;4.70;2.15;;;5.00;99.90;;;;;;12371934;28;20081;-42
2021/04/15 23:07:31;;;;;;;5.88;2.08;;;5.00;99.90;;;;;;12365962;28;20065;-43
2021/04/15 23:13:33;;;;;;;3.55;1.80;;;5.10;99.90;;;;;;12367203;28;20128;-42
2021/04/15 23:19:36;;;;;;;4.15;2.10;;;5.00;99.90;;;;;;12367484;28;20046;-42
2021/04/15 23:25:37;;;;;;;3.90;1.83;;;5.00;99.90;;;;;;12362306;28;20076;-43
2021/04/15 23:31:41;;;;;;;4.53;2.17;;;5.00;99.90;;;;;;12362338;28;20092;-44
2021/04/15 23:37:42;;;;;;;4.68;2.10;;;4.90;99.90;;;;;;12358350;28;20526;-43
2021/04/15 23:43:43;;;;;;;5.82;2.40;;;4.90;99.90;;;;;;12362459;28;20131;-42
2021/04/15 23:49:46;;;;;;;4.25;2.25;;;5.00;99.90;;;;;;12363696;28;20092;-43
2021/04/15 23:55:48;;;;;;;4.93;2.15;;;4.90;99.90;;;;;;12356206;28;20137;-42
